| time (UTC) | temp C | wind direction | speed KPH | gust KPH | rain 1hr cm | rain 24hr cm | rain mn cm | humidity % | barometer mb |
| 20260507123004 | 12 | 329 | 8.0 | 14.5 | 0.00 | 0.30 | 0.00 | 53 | 1014.1 |
| 20260507120103 | 12 | 290 | 6.4 | 12.9 | 0.00 | 0.36 | 0.00 | 49 | 1013.9 |
| 20260507114558 | 12 | 338 | 9.7 | 16.1 | 0.00 | 0.36 | 0.00 | 39 | 1013.9 |
| 20260507113052 | 11 | 320 | 8.0 | 12.9 | 0.00 | 0.36 | 0.00 | 49 | 1014.1 |
| 20260507110039 | 11 | 300 | 8.0 | 17.7 | 0.00 | 0.36 | 0.00 | 41 | 1014.1 |
| 20260507104534 | 10 | 360 | 6.4 | 19.3 | 0.00 | 0.36 | 0.00 | 30 | 1014.2 |
| 20260507103033 | 10 | 324 | 3.2 | 11.3 | 0.00 | 0.36 | 0.00 | 34 | 1014.2 |
| 20260507100034 | 10 | 313 | 8.0 | 19.3 | 0.00 | 0.36 | 0.00 | 30 | 1013.9 |
| 20260507094520 | 10 | 260 | 3.2 | 12.9 | 0.00 | 0.36 | 0.00 | 29 | 1013.8 |
| 20260507093116 | 10 | 315 | 9.7 | 14.5 | 0.00 | 0.36 | 0.00 | 33 | 1013.7 |
| 20260507090011 | 9 | 341 | 4.8 | 17.7 | 0.00 | 0.48 | 0.00 | 17 | 1013.6 |
| 20260507084510 | 9 | 331 | 6.4 | 20.9 | 0.00 | 0.48 | 0.00 | 10 | 1013.5 |
| 20260507083002 | 9 | 329 | 8.0 | 16.1 | 0.00 | 0.48 | 0.00 | 100 | 1013.4 |
| 20260507081658 | 8 | 320 | 6.4 | 11.3 | 0.00 | 0.48 | 0.00 | 100 | 1013.3 |
| 20260507080050 | 7 | 331 | 6.4 | 12.9 | 0.00 | 0.51 | 0.00 | 100 | 1013.2 |
| 20260507074549 | 7 | 320 | 9.7 | 14.5 | 0.00 | 0.51 | 0.00 | 100 | 1013.0 |
| 20260507073052 | 8 | 333 | 6.4 | 14.5 | 0.00 | 0.51 | 0.00 | 100 | 1012.8 |
| 20260507071639 | 7 | 329 | 6.4 | 14.5 | 0.00 | 0.51 | 0.00 | 100 | 1012.7 |
| 20260507070041 | 7 | 350 | 1.6 | 8.0 | 0.00 | 0.51 | 0.00 | 100 | 1012.7 |
| 20260507064542 | 6 | 274 | 0.0 | 8.0 | 0.00 | 0.51 | 0.00 | 100 | 1012.6 |
| 20260507063028 | 6 | 286 | 3.2 | 6.4 | 0.00 | 0.51 | 0.00 | 100 | 1012.4 |
| 20260507061625 | 6 | 303 | 3.2 | 8.0 | 0.00 | 0.51 | 0.00 | 100 | 1012.3 |
| 20260507060020 | 6 | 288 | 3.2 | 9.7 | 0.00 | 0.51 | 0.00 | 100 | 1012.1 |
| 20260507054520 | 6 | 296 | 3.2 | 11.3 | 0.00 | 0.51 | 0.00 | 100 | 1011.9 |
| 20260507053011 | 6 | 293 | 4.8 | 8.0 | 0.00 | 0.51 | 0.00 | 100 | 1011.7 |
| 20260507051607 | 6 | 280 | 4.8 | 6.4 | 0.00 | 0.51 | 0.00 | 100 | 1011.5 |
| 20260507050006 | 6 | 297 | 4.8 | 9.7 | 0.00 | 0.56 | 0.00 | 100 | 1011.3 |
| 20260507044504 | 6 | 284 | 4.8 | 9.7 | 0.00 | 0.56 | 0.00 | 100 | 1011.2 |
| 20260507043058 | 6 | 292 | 3.2 | 8.0 | 0.00 | 0.56 | 0.00 | 100 | 1011.1 |
| 20260507041558 | 6 | 279 | 1.6 | 6.4 | 0.00 | 0.56 | 0.00 | 100 | 1010.9 |
| 20260507040056 | 6 | 279 | 3.2 | 6.4 | 0.00 | 0.56 | 0.00 | 100 | 1010.8 |
| 20260507034602 | 6 | 292 | 4.8 | 6.4 | 0.00 | 0.56 | 0.00 | 100 | 1010.7 |
| 20260507033100 | 6 | 295 | 1.6 | 6.4 | 0.00 | 0.56 | 0.00 | 100 | 1010.7 |
| 20260507031537 | 6 | 291 | 4.8 | 8.0 | 0.00 | 0.56 | 0.00 | 100 | 1010.6 |
| 20260507030032 | 6 | 309 | 4.8 | 9.7 | 0.00 | 0.56 | 0.00 | 100 | 1010.6 |
| 20260507024530 | 6 | 277 | 4.8 | 6.4 | 0.00 | 0.56 | 0.00 | 100 | 1010.5 |
| 20260507023025 | 6 | 300 | 1.6 | 6.4 | 0.00 | 0.56 | 0.00 | 100 | 1010.5 |
| 20260507021519 | 6 | 317 | 3.2 | 6.4 | 0.00 | 0.56 | 0.00 | 100 | 1010.4 |
| 20260507020017 | 6 | 310 | 3.2 | 6.4 | 0.00 | 0.56 | 0.00 | 100 | 1010.3 |
| 20260507014519 | 6 | 334 | 3.2 | 11.3 | 0.00 | 0.56 | 0.00 | 100 | 1010.2 |
| 20260507013012 | 6 | 309 | 1.6 | 6.4 | 0.00 | 0.56 | 0.00 | 100 | 1010.1 |
| 20260507011506 | 6 | 309 | 3.2 | 6.4 | 0.00 | 0.56 | 0.00 | 100 | 1010.0 |
| 20260507010003 | 6 | 311 | 3.2 | 6.4 | 0.00 | 0.58 | 0.00 | 100 | 1009.9 |
| 20260507004557 | 6 | 317 | 1.6 | 6.4 | 0.00 | 0.58 | 0.00 | 100 | 1009.7 |
| 20260507003053 | 6 | 333 | 1.6 | 9.7 | 0.00 | 0.58 | 0.00 | 100 | 1009.6 |
| 20260507001607 | 6 | 314 | 0.0 | 4.8 | 0.00 | 0.58 | 0.00 | 100 | 1009.6 |
| 20260507000047 | 6 | 317 | 0.0 | 3.2 | 0.00 | 0.61 | 0.00 | 100 | 1009.5 |
| 20260506234552 | 6 | 317 | 1.6 | 6.4 | 0.00 | 0.61 | 0.00 | 100 | 1009.6 |
| 20260506233040 | 6 | 316 | 1.6 | 4.8 | 0.00 | 0.61 | 0.00 | 100 | 1009.6 |
| 20260506231537 | 6 | 315 | 0.0 | 6.4 | 0.00 | 0.61 | 0.00 | 100 | 1009.5 |
| 20260506230030 | 6 | 305 | 1.6 | 4.8 | 0.00 | 0.79 | 0.00 | 100 | 1009.5 |
| 20260506224529 | 6 | 307 | 1.6 | 6.4 | 0.00 | 0.79 | 0.00 | 100 | 1009.2 |
| 20260506223022 | 6 | 349 | 6.4 | 12.9 | 0.00 | 0.79 | 0.00 | 100 | 1009.0 |
| 20260506221518 | 6 | 315 | 4.8 | 9.7 | 0.00 | 0.79 | 0.00 | 100 | 1009.0 |
| 20260506220029 | 6 | 316 | 0.0 | 6.4 | 0.00 | 1.30 | 0.79 | 100 | 1008.9 |
| 20260506214510 | 6 | 341 | 3.2 | 8.0 | 0.00 | 1.30 | 0.79 | 100 | 1008.9 |
| 20260506213005 | 6 | 306 | 3.2 | 6.4 | 0.00 | 1.30 | 0.79 | 100 | 1008.8 |
| 20260506211505 | 6 | 295 | 4.8 | 9.7 | 0.00 | 1.30 | 0.79 | 100 | 1008.7 |
| 20260506210059 | 6 | 311 | 3.2 | 12.9 | 0.00 | 1.45 | 0.79 | 100 | 1008.6 |
| 20260506204555 | 6 | 327 | 4.8 | 9.7 | 0.00 | 1.45 | 0.79 | 100 | 1008.6 |
| 20260506203058 | 6 | 320 | 1.6 | 4.8 | 0.00 | 1.45 | 0.79 | 100 | 1008.5 |
| 20260506201547 | 6 | 319 | 0.0 | 8.0 | 0.00 | 1.45 | 0.79 | 100 | 1008.3 |
| 20260506200045 | 6 | 320 | 4.8 | 12.9 | 0.00 | 1.55 | 0.79 | 100 | 1008.2 |
| 20260506194545 | 6 | 323 | 4.8 | 8.0 | 0.00 | 1.55 | 0.79 | 100 | 1008.1 |
| 20260506193043 | 6 | 304 | 8.0 | 11.3 | 0.00 | 1.55 | 0.79 | 100 | 1008.0 |
| 20260506191533 | 6 | 337 | 4.8 | 11.3 | 0.00 | 1.55 | 0.79 | 100 | 1007.8 |
| 20260506190038 | 6 | 327 | 4.8 | 11.3 | 0.00 | 1.65 | 0.79 | 100 | 1007.7 |
| 20260506184532 | 7 | 308 | 4.8 | 9.7 | 0.00 | 1.65 | 0.79 | 100 | 1007.4 |
| 20260506183029 | 7 | 324 | 3.2 | 6.4 | 0.00 | 1.65 | 0.79 | 100 | 1007.2 |
| 20260506181523 | 7 | 325 | 0.0 | 4.8 | 0.00 | 1.65 | 0.79 | 100 | 1007.1 |
| 20260506180012 | 7 | 325 | 1.6 | 6.4 | 0.00 | 1.75 | 0.79 | 100 | 1007.0 |
| 20260506174508 | 7 | 323 | 4.8 | 9.7 | 0.00 | 1.75 | 0.79 | 100 | 1006.9 |
| 20260506173004 | 7 | 304 | 4.8 | 9.7 | 0.00 | 1.75 | 0.79 | 100 | 1006.7 |
| 20260506171606 | 7 | 324 | 0.0 | 8.0 | 0.00 | 1.75 | 0.79 | 100 | 1006.6 |
| 20260506170110 | 7 | 301 | 3.2 | 8.0 | 0.00 | 1.91 | 0.79 | 100 | 1006.5 |
| 20260506170000 | 7 | 300 | 3.2 | 8.0 | 0.00 | 1.91 | 0.79 | 100 | 1006.5 |
| 20260506164557 | 7 | 314 | 3.2 | 6.4 | 0.00 | 1.91 | 0.79 | 100 | 1006.5 |
| 20260506163054 | 8 | 324 | 3.2 | 8.0 | 0.00 | 1.91 | 0.79 | 100 | 1006.3 |
| 20260506161549 | 8 | 5 | 3.2 | 9.7 | 0.03 | 1.91 | 0.79 | 100 | 1006.3 |
| 20260506160058 | 8 | 309 | 4.8 | 12.9 | 0.03 | 2.01 | 0.79 | 100 | 1006.1 |
| 20260506154541 | 8 | 309 | 4.8 | 14.5 | 0.05 | 2.01 | 0.79 | 100 | 1006.1 |
| 20260506153036 | 8 | 336 | 8.0 | 14.5 | 0.05 | 2.01 | 0.79 | 100 | 1006.0 |
| 20260506151533 | 8 | 336 | 6.4 | 17.7 | 0.10 | 1.98 | 0.76 | 100 | 1005.8 |
| 20260506150026 | 8 | 333 | 6.4 | 11.3 | 0.13 | 1.98 | 0.76 | 100 | 1005.7 |
| 20260506144521 | 8 | 303 | 4.8 | 11.3 | 0.15 | 1.98 | 0.76 | 100 | 1005.6 |
| 20260506143017 | 8 | 311 | 6.4 | 14.5 | 0.13 | 1.93 | 0.71 | 100 | 1005.6 |
| 20260506141512 | 9 | 292 | 8.0 | 12.9 | 0.13 | 1.93 | 0.71 | 100 | 1005.5 |
| 20260506140012 | 9 | 285 | 6.4 | 12.9 | 0.08 | 1.85 | 0.64 | 100 | 1005.4 |
| 20260506134507 | 9 | 312 | 4.8 | 8.0 | 0.05 | 1.83 | 0.61 | 100 | 1005.2 |
| 20260506133004 | 9 | 320 | 4.8 | 8.0 | 0.08 | 1.83 | 0.61 | 100 | 1005.1 |
| 20260506131604 | 9 | 312 | 4.8 | 9.7 | 0.08 | 1.80 | 0.58 | 100 | 1005.1 |
| 20260506130056 | 10 | 312 | 4.8 | 9.7 | 0.10 | 1.80 | 0.56 | 100 | 1005.0 |
| 20260506124555 | 10 | 319 | 6.4 | 11.3 | 0.13 | 1.80 | 0.56 | 100 | 1005.0 |